AirNav   Air Wisconsin Up To $57,000 Bonus
 
 504 users online  

MO40 Salem Memorial Hospital Heliport
Salem, Missouri, USA

GOING TO SALEM?


FAA INFORMATION EFFECTIVE 07 NOVEMBER 2019

Location

FAA Identifier: MO40
Lat/Long: 37-39-35.6400N 091-34-14.1500W
37-39.594000N 091-34.235833W
37.6599000,-91.5705972
(estimated)
Elevation: 1170 ft. / 357 m (estimated)
Variation: 03E (1985)
From city: 2 miles NW of SALEM, MO
Time zone: UTC -6 (UTC -5 during Daylight Saving Time)
Zip code: 65560

Heliport Operations

Heliport use: Private use. Permission required prior to landing
Activation date: 06/1973
Control tower: no
ARTCC: KANSAS CITY CENTER
FSS: SAINT LOUIS FLIGHT SERVICE STATION
Attendance: CONTINUOUS
Wind indicator: lighted
Segmented circle: no
Lights: FOR PERIMETER LGTS CALL 314-729-6626.
Beacon: white-green-yellow (heliport)
Operates sunset to sunrise.

Nearby radio navigation aids

VOR radial/distance  VOR name  Freq  Var
MAPr062/11.2MAPLES VORTAC113.4006E
TBNr100/(27.4)FORNEY VOR110.0000E
VIHr162/30.3VICHY VOR/DME117.7006E

Heliport Services

Airframe service: NONE
Powerplant service: NONE
Bottled oxygen: LOW

Runway Information

Helipad H1

Dimensions: 50 x 50 ft. / 15 x 15 m
Surface: asphalt, in good condition
Runway edge lights: PERI
Latitude: 37-39.594000N
Longitude: 091-34.235833W
Elevation: 1170.0 ft.
Traffic pattern: rightleft
Markings: basic, in good condition
Approach lights: PAD INSET LGTS, PERIMETER LGTS AND LANDING DIRECTION LGTS.

Heliport Ownership and Management from official FAA records

Ownership: Privately-owned
Owner: SALEM MEML DISTRICT HOSPITAL
35629 HWY 72
SALEM, MO 65560
Phone 573-729-6048
Manager: TODD WORKMAN
35629 HWY 72
SALEM, MO 65560
Phone 314-729-6626
EXT: 4510

Heliport Operational Statistics

Aircraft operations: 120/year *
83% air taxi
8% transient general aviation
8% military
* for 12-month period ending 11 May 1989

Additional Remarks

A52-H1 APCH FM SE: 32' TREES 310' FM PAD 25' L - APCH RATIO 9:1; APCH FM NE: +45' TREES 880' B, APCH RATIO 19:1.
FOUR 500 WATT QUARTZ FLOOD LIGHTS.
MILITARY LANDING RIGHTS.
CAUTION:HEIGHTS AND DISTANCES OF OBJECTS ARE APPROX MEASUREMENTS.
PPR. CALL 314-729-6626.
FOR CD CTC KANSAS CITY ARTCC AT 913-254-8508.

Instrument Procedures

There are no published instrument procedures at MO40.

Some nearby airports with instrument procedures:

K33 - Salem Memorial Airport (3 nm SW)
KUBX - Cuba Municipal Airport (25 nm N)
KTBN - Waynesville-St. Robert Regional Airport-Forney Field (28 nm W)
M48 - Houston Memorial Airport (28 nm SW)
KVIH - Rolla National Airport (30 nm N)
 
Loc | Ops | Rwys | IFR | FBO | Links
Com | Nav | Svcs | Stats | Notes

Kansas City Aviation Department
 
Area around MO40 (Salem Memorial Hospital Heliport)
 
Road maps at: MapQuest Bing Google
 
Aerial photo
No photo
 
Sectional chart

 
Airport distance calculator
Flying to Salem Memorial Hospital Heliport? Find the distance to fly.

From to MO40

Sunrise and sunset
Times for 11-Nov-2019
 Local
(UTC-6)
 Zulu
(UTC)
Morning civil twilight06:1512:15
Sunrise06:4312:43
Sunset16:5822:58
Evening civil twilight17:2523:25

Current date and time
Zulu (UTC)  12-Nov-2019 05:57:09
Local (UTC-6)  11-Nov-2019 23:57:09
 
METAR
KTBN 
26nm W 
120521Z AUTO 34011KT 10SM BKN022 M09/M13 A3053 RMK AO2 SLP358
KVIH 
30nm N 
120553Z AUTO 34015G26KT 10SM BKN026 M10/M15 A3055 RMK AO2 PK WND 34026/0546 SLP361 T11001150 11061 21100 400781100 51011 $
KUNO 
49nm S 
120553Z AUTO 35015G22KT 10SM BKN024 M08/M12 A3049 RMK AO2 PK WND 35026/0537 SLP337 60000 T10781122 11044 21078 401111078 51013
TAF
NOTAMs
Click for the latest NOTAMs
NOTAMs are issued by the DoD/FAA and will open in a separate window not controlled by AirNav.

 

 
 

Would you like to see your business listed on this page?

 If your business provides an interesting product or service to pilots, flight crews, aircraft, or users of the Salem Memorial Hospital Heliport, you should consider listing it here.  To start the listing process, click on the button below
 
Add a business
 

Other Pages about Salem Memorial Hospital Heliport

Update a link
 
Copyright © AirNav, LLC. All rights reserved. Privacy Policy  Contact